Time;durP1;ratioP1;P1;durP2;ratioP2;P2;SDS_P1;SDS_P2;PMS_P1;PMS_P2;Temp;Humidity;BMP_temperature;BMP_pressure;BME280_temperature;BME280_humidity;BME280_pressure;Samples;Min_cycle;Max_cycle;Signal;HPM_P1;HPM_P2
2021/06/05 00:01:55;;;;;;;6.63;3.97;;;;;;;13.21;100.00;100196.96;1724450;81;21113;-67
2021/06/05 00:04:24;;;;;;;7.83;4.30;;;;;;;13.26;100.00;100194.09;1729100;81;21369;-67
2021/06/05 00:06:51;;;;;;;6.20;4.30;;;;;;;13.23;100.00;100191.03;1732857;81;21006;-66
2021/06/05 00:09:18;;;;;;;7.83;4.43;;;;;;;13.18;100.00;100186.89;1736284;81;21916;-66
2021/06/05 00:11:46;;;;;;;7.50;4.13;;;;;;;13.24;100.00;100187.44;1735121;81;20916;-67
2021/06/05 00:14:13;;;;;;;7.80;4.13;;;;;;;13.26;100.00;100181.00;1735708;81;21567;-67
2021/06/05 00:16:47;;;;;;;7.13;4.37;;;;;;;13.21;100.00;100178.13;1736557;80;21227;-66
2021/06/05 00:19:18;;;;;;;6.83;4.47;;;;;;;13.23;100.00;100178.78;1735089;81;20994;-66
2021/06/05 00:21:45;;;;;;;5.80;3.67;;;;;;;13.17;100.00;100173.51;1732937;81;21153;-69
2021/06/05 00:24:12;;;;;;;11.50;4.20;;;;;;;13.03;100.00;100173.52;1734413;81;21153;-67
2021/06/05 00:26:38;;;;;;;7.47;4.63;;;;;;;13.07;100.00;100174.73;1735006;81;20974;-67
2021/06/05 00:29:07;;;;;;;11.00;5.27;;;;;;;13.05;100.00;100177.23;1734638;81;20886;-67
2021/06/05 00:31:35;;;;;;;8.07;5.93;;;;;;;13.10;100.00;100172.19;1728169;81;20967;-68
2021/06/05 00:34:02;;;;;;;7.40;5.80;;;;;;;13.13;100.00;100174.41;1734128;81;21166;-68
2021/06/05 00:36:29;;;;;;;9.43;5.70;;;;;;;13.15;100.00;100172.41;1733440;81;20982;-68
2021/06/05 00:38:55;;;;;;;9.53;5.10;;;;;;;13.14;100.00;100168.16;1728142;81;21021;-67
2021/06/05 00:41:24;;;;;;;7.70;5.50;;;;;;;13.15;100.00;100168.48;1736562;81;20970;-67
2021/06/05 00:43:53;;;;;;;10.97;5.37;;;;;;;13.08;100.00;100172.91;1729551;81;20955;-69
2021/06/05 00:46:21;;;;;;;7.37;5.27;;;;;;;13.03;100.00;100174.00;1732551;81;21292;-68
2021/06/05 00:48:48;;;;;;;8.10;3.97;;;;;;;13.01;100.00;100168.98;1729564;81;20974;-67
2021/06/05 00:51:17;;;;;;;9.17;4.57;;;;;;;13.02;100.00;100177.13;1732702;81;21066;-68
2021/06/05 00:53:45;;;;;;;8.23;6.03;;;;;;;13.11;100.00;100179.86;1730631;81;21552;-68
2021/06/05 00:56:14;;;;;;;9.97;5.43;;;;;;;13.11;100.00;100173.83;1730751;81;21207;-67
2021/06/05 00:58:40;;;;;;;5.23;3.93;;;;;;;13.32;100.00;100163.66;1702926;81;21558;-67
2021/06/05 01:01:16;;;;;;;5.97;3.00;;;;;;;13.21;100.00;100165.55;1729531;81;21022;-67
2021/06/05 01:03:44;;;;;;;8.33;3.20;;;;;;;13.24;100.00;100171.73;1725697;81;21059;-68
2021/06/05 01:06:33;;;;;;;4.60;2.53;;;;;;;13.25;100.00;100166.78;1720131;81;21078;-68
2021/06/05 01:09:27;;;;;;;4.53;2.20;;;;;;;13.20;100.00;100156.90;1719640;81;21097;-69
2021/06/05 01:12:16;;;;;;;5.17;2.17;;;;;;;13.18;100.00;100156.28;1718531;81;22399;-67
2021/06/05 01:14:57;;;;;;;8.67;1.97;;;;;;;13.11;100.00;100164.16;1719141;81;20990;-68
2021/06/05 01:17:36;;;;;;;5.40;1.90;;;;;;;13.23;100.00;100159.63;1718921;81;21651;-67
2021/06/05 01:20:20;;;;;;;6.30;2.43;;;;;;;13.23;100.00;100156.53;1721029;82;20940;-69
2021/06/05 01:23:05;;;;;;;6.80;2.33;;;;;;;13.12;100.00;100154.49;1716182;81;20908;-67
2021/06/05 01:26:03;;;;;;;5.43;2.70;;;;;;;13.08;100.00;100155.39;1719325;81;21169;-68
2021/06/05 01:28:39;;;;;;;6.53;2.67;;;;;;;13.11;100.00;100148.45;1719256;81;21011;-67
2021/06/05 01:31:10;;;;;;;6.67;1.97;;;;;;;13.18;100.00;100157.59;1718459;81;20923;-68
2021/06/05 01:33:39;;;;;;;5.85;2.20;;;;;;;13.23;100.00;100151.30;1715212;82;21624;-68
2021/06/05 01:36:08;;;;;;;7.22;2.27;;;;;;;13.21;100.00;100150.65;1719170;81;21575;-67
2021/06/05 01:38:41;;;;;;;5.53;2.10;;;;;;;13.30;100.00;100145.55;1718746;81;21548;-68
2021/06/05 01:41:07;;;;;;;3.95;1.98;;;;;;;13.33;100.00;100138.61;1716752;81;20888;-68
2021/06/05 01:43:36;;;;;;;6.33;2.20;;;;;;;13.38;100.00;100142.72;1716944;81;21092;-67
2021/06/05 01:46:03;;;;;;;7.73;2.27;;;;;;;13.38;100.00;100132.75;1720759;81;20919;-68
2021/06/05 01:48:31;;;;;;;6.53;2.30;;;;;;;13.29;100.00;100128.22;1719696;81;21040;-67
2021/06/05 01:51:04;;;;;;;5.80;2.20;;;;;;;13.38;100.00;100130.14;1719599;81;21580;-68
2021/06/05 01:53:33;;;;;;;6.63;2.40;;;;;;;13.38;100.00;100133.55;1719796;81;21484;-69
2021/06/05 01:56:27;;;;;;;4.53;2.27;;;;;;;13.40;100.00;100130.72;1718950;81;21125;-68
2021/06/05 01:58:58;;;;;;;4.90;2.20;;;;;;;13.39;100.00;100129.12;1744006;81;20886;-68
2021/06/05 02:01:29;;;;;;;4.97;2.20;;;;;;;13.49;100.00;100128.20;1766223;81;20902;-68
2021/06/05 02:03:57;;;;;;;6.20;2.53;;;;;;;13.56;100.00;100122.45;1766585;81;21144;-68
2021/06/05 02:06:30;;;;;;;3.67;1.73;;;;;;;13.51;100.00;100124.05;1735609;81;21108;-70
2021/06/05 02:09:01;;;;;;;5.17;3.03;;;;;;;13.45;100.00;100124.86;1763918;81;21082;-69
2021/06/05 02:11:30;;;;;;;3.72;1.87;;;;;;;13.51;100.00;100128.78;1766448;81;20943;-69
2021/06/05 02:14:12;;;;;;;4.23;1.70;;;;;;;13.52;100.00;100126.45;1766851;81;21588;-69
2021/06/05 02:16:43;;;;;;;4.80;2.27;;;;;;;13.50;100.00;100129.80;1736963;81;21525;-69
2021/06/05 02:19:33;;;;;;;4.00;2.17;;;;;;;13.47;100.00;100126.79;1732906;82;21069;-69
2021/06/05 02:22:12;;;;;;;6.90;2.30;;;;;;;13.62;100.00;100123.42;1696016;82;21800;-68
2021/06/05 02:24:43;;;;;;;5.55;2.47;;;;;;;13.66;100.00;100120.69;1765112;81;21069;-68
2021/06/05 02:27:17;;;;;;;7.03;2.67;;;;;;;13.75;100.00;100122.09;1765268;81;21057;-67
2021/06/05 02:29:44;;;;;;;5.97;2.00;;;;;;;13.82;100.00;100120.73;1766353;81;21101;-68
2021/06/05 02:32:14;;;;;;;9.40;2.40;;;;;;;13.95;100.00;100119.89;1737037;81;21120;-68
2021/06/05 02:34:43;;;;;;;7.23;2.60;;;;;;;13.97;100.00;100121.27;1721305;82;20986;-67
2021/06/05 02:37:12;;;;;;;7.53;2.30;;;;;;;13.97;100.00;100124.41;1738277;82;20896;-67
2021/06/05 02:39:40;;;;;;;6.70;2.07;;;;;;;13.99;100.00;100122.39;1720811;82;20895;-67
2021/06/05 02:42:18;;;;;;;4.33;2.13;;;;;;;14.01;100.00;100128.22;1734315;82;22788;-67
2021/06/05 02:44:48;;;;;;;8.70;2.40;;;;;;;14.07;100.00;100133.95;1737480;82;21073;-67
2021/06/05 02:47:16;;;;;;;5.60;2.30;;;;;;;14.09;100.00;100131.91;1737437;82;20938;-68
2021/06/05 02:49:43;;;;;;;5.63;2.23;;;;;;;14.07;100.00;100128.70;1737146;81;20986;-68
2021/06/05 02:52:33;;;;;;;5.73;2.43;;;;;;;14.13;100.00;100127.88;1737066;82;21080;-68
2021/06/05 02:55:28;;;;;;;4.53;2.10;;;;;;;14.23;100.00;100125.59;1733451;82;22277;-70
2021/06/05 02:57:55;;;;;;;6.37;2.58;;;;;;;14.36;100.00;100123.42;1730401;82;21079;-69
2021/06/05 03:00:38;;;;;;;3.47;2.40;;;;;;;14.41;100.00;100120.16;1741673;78;20987;-69
2021/06/05 03:03:06;;;;;;;8.80;2.80;;;;;;;14.40;100.00;100118.56;1736461;81;21148;-69
2021/06/05 03:05:34;;;;;;;6.53;2.60;;;;;;;14.43;100.00;100118.91;1767326;81;21032;-69
2021/06/05 03:08:01;;;;;;;6.37;3.07;;;;;;;14.37;100.00;100118.46;1767312;81;21816;-69
2021/06/05 03:10:31;;;;;;;5.33;2.50;;;;;;;14.39;100.00;100111.17;1766435;81;21084;-70
2021/06/05 03:13:00;;;;;;;5.23;2.50;;;;;;;14.45;100.00;100117.41;1787305;79;21590;-70
2021/06/05 03:15:28;;;;;;;5.07;2.40;;;;;;;14.41;100.00;100114.91;1768254;81;20957;-70
2021/06/05 03:17:56;;;;;;;11.87;2.57;;;;;;;14.42;100.00;100115.20;1790680;79;20994;-69
2021/06/05 03:20:25;;;;;;;8.23;2.57;;;;;;;14.51;100.00;100121.84;1780943;79;21075;-69
2021/06/05 03:22:54;;;;;;;6.47;2.00;;;;;;;14.59;100.00;100118.45;1767718;81;21465;-69
2021/06/05 03:25:21;;;;;;;5.17;2.30;;;;;;;14.77;100.00;100119.52;1767798;81;21324;-70
2021/06/05 03:27:48;;;;;;;5.00;2.60;;;;;;;14.88;100.00;100124.08;1767383;81;21468;-70
2021/06/05 03:30:16;;;;;;;5.03;2.17;;;;;;;14.99;100.00;100120.75;1764657;81;21520;-70
2021/06/05 03:32:44;;;;;;;4.23;2.17;;;;;;;15.09;100.00;100126.33;1766664;81;39041;-70
2021/06/05 03:35:11;;;;;;;4.67;2.30;;;;;;;15.20;100.00;100110.38;1779816;79;21401;-71
2021/06/05 03:37:38;;;;;;;3.97;2.20;;;;;;;15.36;100.00;100110.33;1767639;81;20981;-71
2021/06/05 03:40:08;;;;;;;9.30;2.57;;;;;;;15.48;100.00;100106.46;1784344;78;21054;-70
2021/06/05 03:42:35;;;;;;;4.37;2.10;;;;;;;15.77;100.00;100106.27;1766784;79;21066;-70
2021/06/05 03:45:06;;;;;;;3.23;2.10;;;;;;;15.72;100.00;100097.73;1766005;79;21138;-70
2021/06/05 03:47:33;;;;;;;6.80;2.47;;;;;;;15.92;100.00;100096.69;1767529;81;21037;-71
2021/06/05 03:50:01;;;;;;;5.83;2.20;;;;;;;16.28;100.00;100101.84;1766501;79;20954;-70
2021/06/05 03:52:30;;;;;;;5.17;2.60;;;;;;;16.69;100.00;100089.70;1767206;81;21033;-71
2021/06/05 03:54:57;;;;;;;5.47;2.50;;;;;;;16.99;100.00;100087.52;1766376;79;21021;-70
2021/06/05 03:57:25;;;;;;;5.63;2.20;;;;;;;17.23;100.00;100081.20;1766647;79;21423;-70
2021/06/05 03:59:53;;;;;;;9.17;3.30;;;;;;;17.38;100.00;100080.72;1766317;79;21073;-72
2021/06/05 04:02:22;;;;;;;6.97;6.27;;;;;;;17.56;100.00;100073.19;1751856;79;21568;-70
2021/06/05 04:04:50;;;;;;;10.47;9.27;;;;;;;17.74;100.00;100072.23;1740287;82;21623;-71
2021/06/05 04:07:19;;;;;;;15.03;11.03;;;;;;;17.97;100.00;100065.57;1745141;82;21095;-75
2021/06/05 04:09:46;;;;;;;9.10;5.83;;;;;;;18.33;100.00;100068.02;1744508;81;21126;-72
2021/06/05 04:12:13;;;;;;;6.80;3.57;;;;;;;18.84;100.00;100071.52;1743978;82;20991;-71
2021/06/05 04:14:41;;;;;;;5.23;2.90;;;;;;;19.35;100.00;100065.05;1744030;81;21069;-77
2021/06/05 04:17:08;;;;;;;5.70;2.57;;;;;;;19.84;100.00;100056.39;1743396;81;21002;-76
2021/06/05 04:19:37;;;;;;;8.03;2.63;;;;;;;20.08;100.00;100055.06;1743456;82;21654;-76
2021/06/05 04:22:06;;;;;;;10.37;4.07;;;;;;;20.30;100.00;100056.30;1742779;82;21137;-74
2021/06/05 04:24:37;;;;;;;4.67;2.40;;;;;;;20.34;100.00;100052.62;1744128;81;20979;-75
2021/06/05 04:27:05;;;;;;;6.60;2.90;;;;;;;20.32;100.00;100060.83;1744190;82;21026;-75
2021/06/05 04:29:32;;;;;;;6.40;2.37;;;;;;;20.21;100.00;100052.52;1744676;81;21110;-77
2021/06/05 04:32:00;;;;;;;5.63;2.60;;;;;;;19.96;100.00;100058.89;1743295;81;21532;-76
2021/06/05 04:34:27;;;;;;;7.07;2.37;;;;;;;19.77;100.00;100062.40;1744274;81;21094;-69
2021/06/05 04:36:54;;;;;;;4.13;2.37;;;;;;;19.52;100.00;100062.38;1743453;81;21058;-69
2021/06/05 04:39:21;;;;;;;7.63;3.40;;;;;;;19.41;100.00;100064.61;1744822;81;21077;-76
2021/06/05 04:41:48;;;;;;;8.63;2.87;;;;;;;19.35;100.00;100065.59;1742839;81;21046;-76
2021/06/05 04:44:14;;;;;;;6.63;2.97;;;;;;;19.31;100.00;100056.55;1743248;82;21002;-75
2021/06/05 04:46:41;;;;;;;6.63;2.40;;;;;;;19.38;100.00;100057.17;1744679;81;21061;-75
2021/06/05 04:49:08;;;;;;;9.07;2.60;;;;;;;19.51;100.00;100059.45;1743579;82;20880;-74
2021/06/05 04:51:37;;;;;;;4.93;2.50;;;;;;;19.67;100.00;100055.97;1743879;81;20994;-72
2021/06/05 04:54:06;;;;;;;6.27;2.60;;;;;;;19.84;100.00;100060.36;1745187;81;21426;-73
2021/06/05 04:56:40;;;;;;;7.43;2.80;;;;;;;19.96;100.00;100063.66;1744352;81;20935;-72
2021/06/05 04:59:08;;;;;;;5.83;2.57;;;;;;;20.12;100.00;100068.59;1742907;81;21149;-70
2021/06/05 05:01:36;;;;;;;4.90;2.60;;;;;;;20.33;100.00;100062.94;1743734;81;21133;-70
2021/06/05 05:04:03;;;;;;;9.40;2.70;;;;;;;20.36;100.00;100069.06;1744996;81;21062;-71
2021/06/05 05:06:32;;;;;;;3.83;2.40;;;;;;;20.13;100.00;100068.86;1747640;81;21078;-72
2021/06/05 05:08:59;;;;;;;6.27;2.50;;;;;;;20.12;100.00;100061.45;1749213;81;21031;-67
2021/06/05 05:11:26;;;;;;;6.07;2.70;;;;;;;20.13;100.00;100056.42;1746857;81;21131;-69
2021/06/05 05:13:53;;;;;;;10.07;3.17;;;;;;;20.29;100.00;100061.85;1750953;81;20990;-69
2021/06/05 05:16:20;;;;;;;10.37;2.50;;;;;;;20.29;100.00;100061.85;1751424;81;21560;-70
2021/06/05 05:18:48;;;;;;;4.90;2.53;;;;;;;20.44;100.00;100059.86;1749974;81;20978;-69
2021/06/05 05:21:17;;;;;;;5.67;3.00;;;;;;;20.69;100.00;100056.64;1747119;81;20991;-68
2021/06/05 05:23:45;;;;;;;4.67;2.50;;;;;;;21.04;100.00;100054.20;1748545;80;21291;-70
2021/06/05 05:26:11;;;;;;;4.60;3.10;;;;;;;21.37;100.00;100055.72;1749390;81;21010;-68
2021/06/05 05:28:38;;;;;;;4.70;2.67;;;;;;;21.80;100.00;100048.95;1749141;81;21006;-68
2021/06/05 05:31:10;;;;;;;8.03;2.90;;;;;;;22.53;100.00;100052.20;1750380;81;21019;-68
2021/06/05 05:33:38;;;;;;;5.23;2.13;;;;;;;23.31;100.00;100045.14;1747175;81;21013;-72
2021/06/05 05:36:10;;;;;;;6.60;2.37;;;;;;;24.12;100.00;100047.63;1747529;81;21151;-70
2021/06/05 05:38:37;;;;;;;4.20;2.70;;;;;;;24.73;100.00;100041.25;1748259;81;20998;-69
2021/06/05 05:41:06;;;;;;;7.72;3.30;;;;;;;24.79;100.00;100036.68;1748409;81;21469;-68
2021/06/05 05:43:33;;;;;;;5.45;2.45;;;;;;;24.95;100.00;100040.76;1747809;81;21073;-69
2021/06/05 05:46:00;;;;;;;5.90;2.70;;;;;;;24.95;100.00;100039.97;1750422;81;21587;-70
2021/06/05 05:48:26;;;;;;;6.05;3.45;;;;;;;25.09;100.00;100038.76;1749937;81;21813;-69
2021/06/05 05:50:53;;;;;;;7.78;2.60;;;;;;;25.29;100.00;100039.08;1749302;81;20987;-68
2021/06/05 05:53:19;;;;;;;5.42;2.40;;;;;;;25.42;100.00;100031.17;1750199;81;20978;-69
2021/06/05 05:55:46;;;;;;;4.30;2.33;;;;;;;25.54;100.00;100032.08;1748282;81;21010;-68
2021/06/05 05:58:16;;;;;;;7.97;3.12;;;;;;;25.86;100.00;100029.24;1750256;81;21097;-69
2021/06/05 06:00:44;;;;;;;6.92;2.42;;;;;;;25.87;100.00;100023.60;1750368;81;21772;-70
2021/06/05 06:03:11;;;;;;;7.53;2.85;;;;;;;25.93;100.00;100019.78;1746514;81;20924;-67
2021/06/05 06:05:39;;;;;;;4.97;2.50;;;;;;;25.98;100.00;100018.11;1744834;81;20958;-67
2021/06/05 06:08:06;;;;;;;3.27;2.08;;;;;;;25.63;100.00;100022.33;1745244;82;21659;-70
2021/06/05 06:10:33;;;;;;;4.87;2.60;;;;;;;25.63;100.00;100022.33;1745102;82;21058;-71
2021/06/05 06:13:01;;;;;;;7.03;3.08;;;;;;;25.46;100.00;100023.39;1745050;81;22106;-71
2021/06/05 06:15:28;;;;;;;6.97;2.77;;;;;;;25.23;100.00;100019.14;1742216;81;21587;-67
2021/06/05 06:17:57;;;;;;;5.60;2.65;;;;;;;24.90;100.00;100015.50;1743334;82;22166;-69
2021/06/05 06:20:32;;;;;;;6.83;2.67;;;;;;;24.58;100.00;100019.29;1745982;82;21046;-71
2021/06/05 06:22:59;;;;;;;6.40;2.60;;;;;;;24.51;100.00;100017.77;1744109;82;21465;-70
2021/06/05 06:25:28;;;;;;;5.70;2.47;;;;;;;24.08;100.00;100015.98;1745627;81;21131;-69
2021/06/05 06:27:55;;;;;;;6.15;2.55;;;;;;;24.19;100.00;100015.61;1745073;81;21074;-66
2021/06/05 06:30:27;;;;;;;6.97;2.60;;;;;;;24.07;100.00;100018.39;1745587;81;21006;-70
2021/06/05 06:32:53;;;;;;;6.80;2.98;;;;;;;23.93;100.00;100015.02;1742979;81;21477;-71
2021/06/05 06:35:22;;;;;;;6.12;2.83;;;;;;;23.84;100.00;100016.69;1745782;81;21042;-69
2021/06/05 06:37:49;;;;;;;10.17;3.30;;;;;;;23.68;100.00;100022.65;1743422;81;22456;-68
2021/06/05 06:40:16;;;;;;;5.87;3.00;;;;;;;23.50;100.00;100013.40;1744718;82;21060;-67
2021/06/05 06:42:43;;;;;;;7.13;2.60;;;;;;;23.19;100.00;100014.63;1745673;81;21598;-67
2021/06/05 06:45:12;;;;;;;6.30;2.73;;;;;;;23.04;100.00;100014.14;1745291;81;21061;-67
2021/06/05 06:47:38;;;;;;;7.37;3.00;;;;;;;22.71;100.00;100018.19;1743014;81;20988;-65
2021/06/05 06:50:07;;;;;;;9.60;3.67;;;;;;;22.56;100.00;100020.34;1745666;81;21110;-67
2021/06/05 06:52:34;;;;;;;5.93;2.80;;;;;;;22.58;100.00;100020.34;1744929;81;20904;-67
2021/06/05 06:55:00;;;;;;;5.30;2.53;;;;;;;22.74;100.00;100016.33;1744598;81;21137;-68
2021/06/05 06:57:27;;;;;;;5.93;2.67;;;;;;;22.96;100.00;100016.83;1744099;81;21560;-66
2021/06/05 06:59:54;;;;;;;7.13;2.57;;;;;;;23.22;100.00;100010.06;1742032;81;21564;-68
2021/06/05 07:02:21;;;;;;;7.47;2.97;;;;;;;23.42;100.00;100015.31;1745488;81;21520;-67
2021/06/05 07:04:50;;;;;;;5.70;2.80;;;;;;;23.46;100.00;100015.02;1744396;82;21017;-65
2021/06/05 07:07:17;;;;;;;5.83;2.67;;;;;;;23.48;100.00;100016.86;1746098;82;20944;-67
2021/06/05 07:09:44;;;;;;;5.57;3.10;;;;;;;23.58;100.00;100012.56;1744477;81;20977;-66
2021/06/05 07:12:13;;;;;;;5.70;2.53;;;;;;;23.71;100.00;100015.42;1744901;82;21152;-67
2021/06/05 07:14:40;;;;;;;6.23;2.60;;;;;;;23.51;100.00;100012.86;1743982;81;21126;-68
2021/06/05 07:17:08;;;;;;;6.33;2.70;;;;;;;23.95;100.00;100008.89;1743075;82;21037;-68
2021/06/05 07:19:35;;;;;;;4.63;2.70;;;;;;;23.91;100.00;100011.06;1744321;82;21674;-66
2021/06/05 07:22:02;;;;;;;4.43;2.50;;;;;;;23.94;100.00;100011.81;1743548;82;21559;-67
2021/06/05 07:24:30;;;;;;;7.50;3.10;;;;;;;23.97;100.00;100014.72;1746191;82;21118;-67
2021/06/05 07:26:58;;;;;;;6.40;3.03;;;;;;;24.00;100.00;100015.50;1745135;81;20939;-68
2021/06/05 07:29:25;;;;;;;5.60;2.80;;;;;;;24.09;100.00;100006.91;1746289;82;21578;-67
2021/06/05 07:31:52;;;;;;;6.60;3.00;;;;;;;24.40;100.00;100014.95;1743820;82;20939;-67
2021/06/05 07:34:22;;;;;;;5.73;3.23;;;;;;;24.90;100.00;100006.70;1745963;82;20971;-68
2021/06/05 07:36:53;;;;;;;6.50;2.62;;;;;;;25.18;100.00;100004.52;1746338;81;20979;-68
2021/06/05 07:39:22;;;;;;;;;;;;;;;25.42;100.00;100008.48;1748074;82;21095;-68
2021/06/05 07:41:49;;;;;;;6.05;2.65;;;;;;;25.82;100.00;99995.66;1745410;82;20086;-69
2021/06/05 07:44:16;;;;;;;7.15;2.62;;;;;;;26.17;100.00;99992.15;1743712;82;20998;-68
2021/06/05 07:46:44;;;;;;;5.47;3.08;;;;;;;26.51;100.00;99992.39;1745698;82;21089;-68
2021/06/05 07:49:12;;;;;;;7.62;2.58;;;;;;;27.05;100.00;99997.48;1745676;82;21014;-69
2021/06/05 07:51:38;;;;;;;5.83;2.77;;;;;;;28.02;97.23;99988.69;1744339;82;21841;-68
2021/06/05 07:54:05;;;;;;;4.45;2.42;;;;;;;28.02;97.23;99988.69;1745753;82;21125;-68
2021/06/05 07:56:34;;;;;;;7.03;2.50;;;;;;;28.17;100.00;99990.98;1745140;81;21015;-68
2021/06/05 07:59:03;;;;;;;6.72;2.30;;;;;;;28.74;97.92;99987.63;1744754;82;21045;-68
2021/06/05 08:01:29;;;;;;;5.67;2.90;;;;;;;29.15;89.59;99987.84;1744277;82;21379;-67
2021/06/05 08:03:56;;;;;;;6.65;2.98;;;;;;;29.45;84.58;99986.14;1744398;82;21131;-68
2021/06/05 08:06:23;;;;;;;4.37;2.20;;;;;;;29.80;75.91;99982.91;1744881;82;21567;-65
2021/06/05 08:08:51;;;;;;;8.78;2.77;;;;;;;29.80;73.54;99979.66;1742369;82;20961;-67
2021/06/05 08:11:17;;;;;;;8.10;2.30;;;;;;;29.53;73.54;99984.78;1745744;82;21006;-67
2021/06/05 08:13:44;;;;;;;6.72;2.52;;;;;;;29.38;80.92;99982.58;1744810;82;20997;-66
2021/06/05 08:16:11;;;;;;;4.08;2.10;;;;;;;29.31;76.68;99983.59;1745867;82;21139;-67
2021/06/05 08:18:39;;;;;;;4.70;2.30;;;;;;;29.29;69.69;99981.23;1745434;82;20967;-67
2021/06/05 08:21:12;;;;;;;6.25;2.40;;;;;;;29.35;69.93;99984.55;1745514;82;21010;-67
2021/06/05 08:23:39;;;;;;;3.90;2.05;;;;;;;29.53;71.44;99979.97;1745049;82;20986;-65
2021/06/05 08:26:07;;;;;;;4.15;2.40;;;;;;;29.40;71.08;99983.06;1745853;82;22442;-67
2021/06/05 08:28:34;;;;;;;6.70;1.90;;;;;;;29.17;67.57;99982.41;1745609;81;21583;-66
2021/06/05 08:31:04;;;;;;;6.55;2.80;;;;;;;28.76;68.21;99976.05;1745584;81;22262;-68
2021/06/05 08:33:31;;;;;;;6.72;2.45;;;;;;;28.35;73.90;99983.27;1744322;82;21003;-66
2021/06/05 08:35:58;;;;;;;5.70;2.10;;;;;;;28.08;85.21;99973.52;1745146;82;20987;-66
2021/06/05 08:38:27;;;;;;;5.25;2.85;;;;;;;28.01;88.42;99976.39;1745654;82;21037;-69
2021/06/05 08:41:08;;;;;;;4.92;1.98;;;;;;;28.02;89.27;99972.61;1742361;82;21147;-70
2021/06/05 08:43:39;;;;;;;4.92;2.62;;;;;;;28.06;90.50;99976.25;1743591;81;21611;-67
2021/06/05 08:46:08;;;;;;;8.48;2.77;;;;;;;28.06;88.82;99971.68;1745627;82;21089;-68
2021/06/05 08:48:34;;;;;;;4.67;2.25;;;;;;;27.94;88.77;99974.14;1744737;82;21098;-68
2021/06/05 08:51:47;;;;;;;7.75;2.67;;;;;;;27.63;85.99;99976.18;1745844;82;21057;-68
2021/06/05 08:54:19;;;;;;;5.42;2.33;;;;;;;27.35;91.46;99972.81;1749389;81;21233;-68
2021/06/05 08:56:46;;;;;;;5.20;2.83;;;;;;;27.16;86.41;99979.64;1743949;82;21591;-69
2021/06/05 08:59:12;;;;;;;7.12;3.17;;;;;;;26.83;91.25;99984.30;1740561;81;21037;-67
2021/06/05 09:01:44;;;;;;;5.87;2.65;;;;;;;26.70;95.76;99981.06;1716084;82;21076;-68
2021/06/05 09:04:18;;;;;;;3.95;2.22;;;;;;;26.60;95.05;99979.39;1742018;81;20930;-68
2021/06/05 09:06:58;;;;;;;5.17;2.25;;;;;;;26.67;93.76;99969.66;1744302;81;20987;-65
2021/06/05 09:09:35;;;;;;;7.42;2.67;;;;;;;26.55;94.54;99973.34;1762548;80;21070;-66
2021/06/05 09:12:03;;;;;;;9.40;2.83;;;;;;;26.50;98.65;99975.56;1745846;79;21793;-70
2021/06/05 09:14:30;;;;;;;4.47;2.60;;;;;;;26.64;100.00;99974.25;1745453;82;21324;-65
2021/06/05 09:16:58;;;;;;;6.60;2.70;;;;;;;26.88;96.23;99969.48;1745178;81;21062;-66
2021/06/05 09:19:29;;;;;;;4.58;2.75;;;;;;;27.10;99.99;99967.97;1744606;81;21133;-67
2021/06/05 09:22:10;;;;;;;5.90;2.45;;;;;;;27.40;93.97;99962.53;1744345;82;20987;-67
2021/06/05 09:24:47;;;;;;;4.87;2.70;;;;;;;27.54;90.51;99968.64;1742391;81;21085;-71
2021/06/05 09:27:19;;;;;;;6.85;2.83;;;;;;;27.57;89.77;99961.87;1742095;82;21006;-64
2021/06/05 09:30:07;;;;;;;4.22;2.67;;;;;;;27.53;91.29;99959.00;1745195;81;20979;-70
2021/06/05 09:32:57;;;;;;;6.35;2.30;;;;;;;27.55;93.40;99968.09;1744696;81;21750;-67
2021/06/05 09:35:30;;;;;;;8.05;2.85;;;;;;;27.63;91.28;99967.36;1743823;82;21058;-68
2021/06/05 09:38:26;;;;;;;6.30;2.60;;;;;;;27.64;90.02;99967.59;1744744;82;21534;-70
2021/06/05 09:41:30;;;;;;;7.37;3.08;;;;;;;27.60;90.51;99967.41;1706991;82;21865;-65
2021/06/05 09:44:28;;;;;;;5.55;2.50;;;;;;;27.63;86.89;99962.80;1745074;82;21027;-69
2021/06/05 09:47:01;;;;;;;4.10;2.52;;;;;;;27.33;90.43;99966.17;1745946;82;21470;-69
2021/06/05 09:49:45;;;;;;;5.80;2.83;;;;;;;26.95;95.67;99962.95;1745291;81;21011;-69
2021/06/05 09:52:14;;;;;;;5.60;3.00;;;;;;;26.69;96.68;99960.22;1742823;81;20970;-71
2021/06/05 09:54:46;;;;;;;4.53;2.45;;;;;;;26.66;99.42;99965.38;1744057;81;21166;-68
2021/06/05 09:57:33;;;;;;;4.53;2.92;;;;;;;26.99;98.07;99955.91;1742508;81;21580;-69
2021/06/05 10:00:16;;;;;;;4.65;3.40;;;;;;;27.27;93.79;99958.78;1744762;81;21365;-69
2021/06/05 10:02:48;;;;;;;9.13;3.05;;;;;;;27.74;93.52;99949.98;1744858;81;21080;-67
2021/06/05 10:05:35;;;;;;;4.60;3.27;;;;;;;28.24;82.08;99957.05;1744522;81;21492;-67
2021/06/05 10:08:28;;;;;;;5.55;3.10;;;;;;;28.65;75.95;99955.43;1743872;82;21493;-70
2021/06/05 10:11:04;;;;;;;6.08;2.87;;;;;;;29.00;78.84;99953.64;1745438;82;21015;-70
2021/06/05 10:13:36;;;;;;;5.85;2.87;;;;;;;29.54;71.65;99947.97;1744986;81;21006;-70
2021/06/05 10:16:15;;;;;;;4.87;3.00;;;;;;;30.02;66.94;99948.33;1742258;81;21059;-70
2021/06/05 10:18:51;;;;;;;4.30;2.62;;;;;;;30.27;59.25;99955.55;1744993;82;21578;-71
2021/06/05 10:21:41;;;;;;;3.58;2.98;;;;;;;30.24;56.89;99952.16;1741457;82;20880;-68
2021/06/05 10:24:35;;;;;;;4.75;3.00;;;;;;;30.09;55.79;99954.00;1743915;82;20939;-68
2021/06/05 10:27:10;;;;;;;4.90;2.92;;;;;;;29.84;57.51;99961.56;1745091;81;22094;-67
2021/06/05 10:29:51;;;;;;;7.28;3.62;;;;;;;29.60;59.60;99964.20;1743542;81;20888;-68
2021/06/05 10:32:25;;;;;;;4.10;2.80;;;;;;;29.29;62.54;99958.41;1745122;82;21003;-64
2021/06/05 10:35:03;;;;;;;5.25;3.20;;;;;;;29.02;63.72;99964.08;1745308;81;21036;-70
2021/06/05 10:37:31;;;;;;;5.60;3.33;;;;;;;28.69;62.05;99963.65;1744738;82;21499;-69
2021/06/05 10:39:59;;;;;;;4.40;3.12;;;;;;;28.18;66.42;99958.27;1745782;82;21109;-66
2021/06/05 10:42:37;;;;;;;7.53;2.95;;;;;;;27.48;71.85;99963.70;1744924;82;21014;-66
2021/06/05 10:45:04;;;;;;;5.60;2.77;;;;;;;27.22;76.52;99964.25;1744717;80;21077;-65
2021/06/05 10:47:49;;;;;;;6.22;3.60;;;;;;;26.88;82.54;99968.69;1745396;82;21019;-68
2021/06/05 10:50:27;;;;;;;7.75;3.42;;;;;;;26.77;86.01;99970.77;1744510;82;20968;-70
2021/06/05 10:53:06;;;;;;;6.12;3.10;;;;;;;26.64;85.03;99959.55;1741805;81;21080;-67
2021/06/05 10:55:46;;;;;;;7.55;3.35;;;;;;;26.38;83.62;99960.53;1744050;81;20916;-69
2021/06/05 10:58:26;;;;;;;8.60;3.55;;;;;;;26.03;90.47;99962.75;1745808;82;22035;-69
2021/06/05 11:01:07;;;;;;;7.03;3.25;;;;;;;26.02;93.76;99961.14;1742343;82;20983;-69
2021/06/05 11:03:40;;;;;;;6.50;3.10;;;;;;;25.88;92.37;99965.67;1744794;81;21529;-70
2021/06/05 11:06:12;;;;;;;7.43;3.07;;;;;;;25.48;94.55;99967.29;1742386;82;21179;-68
2021/06/05 11:09:01;;;;;;;8.13;3.17;;;;;;;25.10;97.40;99972.36;1760731;80;20940;-69
2021/06/05 11:11:41;;;;;;;6.67;3.37;;;;;;;24.96;97.65;99970.37;1743091;81;21038;-69
2021/06/05 11:14:25;;;;;;;5.53;2.87;;;;;;;24.65;95.92;99967.78;1745017;81;21469;-71
2021/06/05 11:17:13;;;;;;;6.00;3.00;;;;;;;23.94;100.00;99971.37;1749422;79;21509;-72
2021/06/05 11:20:07;;;;;;;6.50;2.70;;;;;;;23.78;100.00;99971.20;1744978;82;21046;-70
2021/06/05 11:22:59;;;;;;;7.13;3.20;;;;;;;23.71;100.00;99972.05;1745039;81;21834;-70
2021/06/05 11:25:43;;;;;;;6.63;3.20;;;;;;;23.57;100.00;99973.73;1745361;82;21545;-70
2021/06/05 11:28:34;;;;;;;7.83;3.10;;;;;;;23.51;100.00;99969.75;1745903;80;21030;-72
2021/06/05 11:31:05;;;;;;;5.20;3.30;;;;;;;23.44;100.00;99973.25;1744368;82;21252;-68
2021/06/05 11:33:45;;;;;;;10.08;3.33;;;;;;;23.43;100.00;99962.90;1713238;82;21174;-71
2021/06/05 11:36:38;;;;;;;6.47;2.90;;;;;;;23.38;100.00;99969.05;1744730;82;21077;-67
2021/06/05 11:39:12;;;;;;;11.10;3.60;;;;;;;23.36;100.00;99960.53;1741524;82;21029;-68
2021/06/05 11:41:49;;;;;;;7.87;3.10;;;;;;;23.10;100.00;99961.73;1739790;82;21000;-67
2021/06/05 11:44:37;;;;;;;7.67;3.40;;;;;;;23.10;100.00;99959.86;1745580;79;20974;-68